Time;durP1;ratioP1;P1;durP2;ratioP2;P2;SDS_P1;SDS_P2;PMS_P1;PMS_P2;Temp;Humidity;BMP_temperature;BMP_pressure;BME280_temperature;BME280_humidity;BME280_pressure;Samples;Min_cycle;Max_cycle;Signal;HPM_P1;HPM_P2
2021/03/09 00:02:05;;;;;;;27.25;12.50;;;;;;;-1.70;73.25;100995.10;1765118;79;25669;-68
2021/03/09 00:04:32;;;;;;;27.85;11.88;;;;;;;-1.69;73.14;100996.33;1771821;79;25780;-74
2021/03/09 00:06:58;;;;;;;20.57;10.20;;;;;;;-1.71;73.17;100995.56;1774707;78;25703;-74
2021/03/09 00:09:25;;;;;;;21.20;11.55;;;;;;;-1.72;73.18;100993.91;1769611;79;26247;-74
2021/03/09 00:11:51;;;;;;;25.05;12.43;;;;;;;-1.68;73.26;101000.99;1770952;79;25869;-74
2021/03/09 00:14:17;;;;;;;26.07;13.55;;;;;;;-1.70;73.21;101002.79;1773909;78;25740;-74
2021/03/09 00:16:44;;;;;;;27.13;14.35;;;;;;;-1.76;73.03;101000.52;1774029;79;25823;-74
2021/03/09 00:19:10;;;;;;;26.12;13.32;;;;;;;-1.85;72.98;101009.45;1769749;79;25556;-74
2021/03/09 00:21:36;;;;;;;27.05;13.38;;;;;;;-1.94;73.04;101006.01;1773491;79;25683;-75
2021/03/09 00:24:03;;;;;;;30.32;14.10;;;;;;;-1.96;73.30;101000.97;1765709;78;25723;-74
2021/03/09 00:26:30;;;;;;;32.70;16.40;;;;;;;-1.91;73.54;100999.46;1772985;79;25679;-74
2021/03/09 00:28:56;;;;;;;25.55;15.00;;;;;;;-1.90;73.49;101003.70;1770483;79;25752;-74
2021/03/09 00:31:23;;;;;;;39.30;16.82;;;;;;;-1.89;73.51;101004.08;1774000;79;25909;-74
2021/03/09 00:33:49;;;;;;;35.68;14.95;;;;;;;-1.85;73.70;101003.88;1733243;80;25855;-74
2021/03/09 00:36:16;;;;;;;32.05;15.63;;;;;;;-1.82;73.68;101005.02;1780039;78;25760;-74
2021/03/09 00:38:42;;;;;;;32.03;15.68;;;;;;;-1.82;73.59;101005.02;1772072;78;25658;-74
2021/03/09 00:41:08;;;;;;;30.75;14.98;;;;;;;-1.84;73.56;101008.09;1779966;78;25783;-73
2021/03/09 00:43:35;;;;;;;31.42;15.78;;;;;;;-1.83;73.47;101005.07;1752598;79;25859;-74
2021/03/09 00:46:01;;;;;;;31.05;14.78;;;;;;;-1.90;73.28;101004.98;1767174;79;26372;-74
2021/03/09 00:48:39;;;;;;;28.47;14.75;;;;;;;-1.96;73.33;101002.25;1777690;78;25699;-74
2021/03/09 00:51:06;;;;;;;29.72;15.58;;;;;;;-2.01;73.43;101003.73;1775996;78;26210;-75
2021/03/09 00:53:33;;;;;;;29.45;15.60;;;;;;;-2.04;73.59;101009.45;1776577;78;25646;-75
2021/03/09 00:55:59;;;;;;;30.10;14.90;;;;;;;-2.06;73.58;101013.34;1766464;79;26313;-75
2021/03/09 00:58:26;;;;;;;28.52;14.75;;;;;;;-2.10;73.60;101021.22;1773636;78;25697;-75
2021/03/09 01:00:53;;;;;;;30.10;13.95;;;;;;;-2.14;73.70;101016.69;1777321;78;25735;-75
2021/03/09 01:03:19;;;;;;;27.58;13.88;;;;;;;-2.14;73.87;101013.30;1769747;78;25617;-75
2021/03/09 01:05:45;;;;;;;25.52;13.62;;;;;;;-2.14;73.93;101012.85;1776478;78;25837;-75
2021/03/09 01:08:12;;;;;;;25.55;12.53;;;;;;;-2.14;74.00;101015.41;1773987;79;26113;-75
2021/03/09 01:10:39;;;;;;;36.28;13.93;;;;;;;-2.12;74.02;101012.80;1771049;79;26276;-75
2021/03/09 01:13:05;;;;;;;26.62;13.95;;;;;;;-2.15;73.93;101016.78;1770795;78;26592;-75
2021/03/09 01:15:32;;;;;;;27.52;14.18;;;;;;;-2.18;73.99;101012.63;1774150;78;25659;-75
2021/03/09 01:17:58;;;;;;;27.95;12.73;;;;;;;-2.22;73.95;101011.53;1767249;79;25727;-75
2021/03/09 01:20:25;;;;;;;25.80;12.85;;;;;;;-2.28;73.96;101014.73;1769868;79;25718;-75
2021/03/09 01:22:51;;;;;;;26.48;12.60;;;;;;;-2.32;74.11;101009.80;1771384;79;26396;-75
2021/03/09 01:25:18;;;;;;;24.50;12.53;;;;;;;-2.36;74.16;101007.84;1767806;79;25726;-75
2021/03/09 01:27:44;;;;;;;24.02;13.05;;;;;;;-2.40;74.19;101003.77;1763156;79;26528;-75
2021/03/09 01:30:13;;;;;;;24.37;12.05;;;;;;;-2.44;74.27;101002.22;1766910;79;25698;-75
2021/03/09 01:32:39;;;;;;;25.48;13.58;;;;;;;-2.44;74.42;101001.39;1777198;78;25615;-75
2021/03/09 01:35:07;;;;;;;24.27;11.93;;;;;;;-2.44;74.51;100999.66;1774604;78;25978;-75
2021/03/09 01:37:34;;;;;;;27.77;13.85;;;;;;;-2.44;74.63;100995.81;1767918;79;25643;-75
2021/03/09 01:40:00;;;;;;;23.22;11.20;;;;;;;-2.39;74.82;101002.86;1772077;78;25887;-75
2021/03/09 01:42:27;;;;;;;20.45;10.63;;;;;;;-2.38;74.79;101000.67;1772350;78;25677;-75
2021/03/09 01:44:53;;;;;;;29.07;13.40;;;;;;;-2.37;74.81;101000.24;1770577;78;25851;-75
2021/03/09 01:47:20;;;;;;;24.63;13.35;;;;;;;-2.40;74.81;101002.91;1769973;79;25834;-75
2021/03/09 01:49:47;;;;;;;25.43;13.20;;;;;;;-2.42;74.86;100997.05;1778009;78;25765;-75
2021/03/09 01:52:13;;;;;;;27.77;14.63;;;;;;;-2.45;74.94;101001.84;1778818;78;25873;-75
2021/03/09 01:54:40;;;;;;;30.57;15.08;;;;;;;-2.46;75.02;100999.73;1765123;79;25702;-75
2021/03/09 01:57:08;;;;;;;37.17;17.07;;;;;;;-2.43;75.17;101001.77;1768177;79;25446;-75
2021/03/09 01:59:34;;;;;;;40.85;19.55;;;;;;;-2.47;75.08;101001.08;1759163;79;26587;-75
2021/03/09 02:02:01;;;;;;;40.10;18.45;;;;;;;-2.43;75.31;101005.14;1774578;79;26175;-75
2021/03/09 02:04:28;;;;;;;34.05;17.02;;;;;;;-2.43;75.30;101005.60;1741455;78;25472;-75
2021/03/09 02:06:54;;;;;;;35.73;17.37;;;;;;;-2.42;75.39;101007.28;1778458;78;26114;-75
2021/03/09 02:09:22;;;;;;;33.00;15.65;;;;;;;-2.39;75.49;101007.15;1772922;79;26040;-75
2021/03/09 02:12:34;;;;;;;32.85;16.37;;;;;;;-2.33;75.55;101014.55;1735369;80;25822;-75
2021/03/09 02:15:25;;;;;;;34.13;16.77;;;;;;;-2.28;75.49;101010.08;1778646;78;25703;-75
2021/03/09 02:18:24;;;;;;;29.42;14.18;;;;;;;-2.32;75.47;101010.66;1771941;78;25797;-75
2021/03/09 02:21:24;;;;;;;29.63;15.58;;;;;;;-2.28;75.60;101009.62;1737518;81;25821;-75
2021/03/09 02:24:31;;;;;;;24.00;12.95;;;;;;;-2.25;75.51;101009.48;1733548;81;25756;-74
2021/03/09 02:27:28;;;;;;;21.55;12.13;;;;;;;-2.21;75.37;101011.91;1722580;81;25729;-69
2021/03/09 02:30:18;;;;;;;25.23;12.63;;;;;;;-2.21;75.35;101009.34;1733713;80;26742;-69
2021/03/09 02:32:59;;;;;;;26.12;12.20;;;;;;;-2.21;75.27;101008.92;1722505;81;25760;-70
2021/03/09 02:35:27;;;;;;;21.85;10.75;;;;;;;-2.24;75.15;101009.02;1674208;83;25373;-70
2021/03/09 02:38:00;;;;;;;24.63;11.95;;;;;;;-2.26;75.24;101015.96;1696085;83;25572;-71
2021/03/09 02:40:28;;;;;;;23.45;12.45;;;;;;;-2.27;75.12;101019.41;1683487;83;26647;-71
2021/03/09 02:43:06;;;;;;;26.17;12.82;;;;;;;-2.26;75.19;101024.92;1691316;83;25853;-70
2021/03/09 02:45:33;;;;;;;26.42;12.47;;;;;;;-2.24;75.19;101022.69;1690863;83;25771;-70
2021/03/09 02:48:01;;;;;;;25.72;12.75;;;;;;;-2.26;74.95;101024.92;1689736;83;26067;-70
2021/03/09 02:50:28;;;;;;;25.08;11.78;;;;;;;-2.32;74.87;101022.19;1689689;83;25893;-70
2021/03/09 02:53:08;;;;;;;21.90;10.38;;;;;;;-2.33;75.03;101023.52;1679404;83;25892;-70
2021/03/09 02:55:38;;;;;;;24.93;12.20;;;;;;;-2.35;75.01;101023.56;1676896;83;25921;-75
2021/03/09 02:58:12;;;;;;;21.93;11.33;;;;;;;-2.37;74.99;101020.72;1729337;80;25726;-76
2021/03/09 03:00:40;;;;;;;23.52;10.82;;;;;;;-2.39;74.97;101027.17;1752461;80;25830;-76
2021/03/09 03:03:14;;;;;;;23.70;10.72;;;;;;;-2.40;75.00;101029.78;1755542;80;25767;-73
2021/03/09 03:05:41;;;;;;;20.62;8.95;;;;;;;-2.41;75.03;101027.67;1758662;79;26500;-74
2021/03/09 03:08:09;;;;;;;23.87;10.20;;;;;;;-2.43;75.10;101024.80;1774766;78;25759;-74
2021/03/09 03:10:39;;;;;;;23.42;8.85;;;;;;;-2.41;75.22;101023.02;1780443;78;26669;-74
2021/03/09 03:13:10;;;;;;;17.87;8.53;;;;;;;-2.41;75.25;101017.44;1779874;78;25916;-74
2021/03/09 03:15:37;;;;;;;20.90;8.93;;;;;;;-2.59;75.23;100988.36;1776941;78;25351;-74
2021/03/09 03:18:08;;;;;;;22.13;10.78;;;;;;;-2.38;75.12;101024.16;1772059;78;26519;-69
2021/03/09 03:20:35;;;;;;;;;;;;;;;-2.39;75.02;101027.17;1780621;78;25720;-69
2021/03/09 03:23:02;;;;;;;20.08;10.58;;;;;;;-2.41;75.06;101027.67;1740879;80;25790;-70
2021/03/09 03:25:30;;;;;;;20.27;11.00;;;;;;;-2.43;75.10;101025.62;1715656;80;25786;-70
2021/03/09 03:27:58;;;;;;;19.00;11.38;;;;;;;-2.44;75.10;101030.83;1727791;81;25692;-70
2021/03/09 03:30:24;;;;;;;21.12;12.35;;;;;;;-2.48;75.11;101027.12;1780112;78;25803;-69
2021/03/09 03:32:51;;;;;;;18.23;10.95;;;;;;;-2.50;75.12;101027.63;1767224;79;26089;-70
2021/03/09 03:35:18;;;;;;;19.77;10.00;;;;;;;-2.50;75.16;101023.78;1769356;79;25479;-75
2021/03/09 03:37:45;;;;;;;18.48;10.03;;;;;;;-2.52;75.11;101028.58;1771408;78;25883;-75
2021/03/09 03:40:20;;;;;;;18.07;9.60;;;;;;;-2.59;75.08;101032.28;1767014;79;25733;-75
2021/03/09 03:42:47;;;;;;;18.55;9.58;;;;;;;-2.58;75.15;101032.69;1771402;79;25804;-75
2021/03/09 03:45:18;;;;;;;17.92;9.03;;;;;;;-2.61;75.07;101036.66;1781601;78;25713;-75
2021/03/09 03:47:44;;;;;;;;;;;;;;;-2.60;75.18;101034.02;1777916;78;25359;-76
2021/03/09 03:50:15;;;;;;;17.55;9.20;;;;;;;-2.58;75.12;101039.08;1755689;80;25785;-75
2021/03/09 03:53:03;;;;;;;23.30;11.12;;;;;;;-2.59;75.18;101034.42;1755183;79;25760;-75
2021/03/09 03:56:01;;;;;;;19.90;9.68;;;;;;;-2.56;75.16;101038.58;1759503;79;25673;-75
2021/03/09 03:59:05;;;;;;;19.30;9.90;;;;;;;-2.57;75.03;101041.56;1708237;82;26422;-75
2021/03/09 04:01:33;;;;;;;18.57;9.33;;;;;;;-2.62;75.03;101043.51;1723056;80;25727;-75
2021/03/09 04:04:04;;;;;;;19.85;9.98;;;;;;;-2.64;75.06;101040.17;1742744;80;25775;-75
2021/03/09 04:06:32;;;;;;;19.73;9.88;;;;;;;-2.65;75.12;101039.77;1748019;80;25645;-75
2021/03/09 04:09:03;;;;;;;17.65;9.98;;;;;;;-2.61;75.23;101036.20;1708591;81;25748;-72
2021/03/09 04:11:32;;;;;;;23.22;9.58;;;;;;;-2.59;75.16;101036.98;1714698;81;25918;-75
2021/03/09 04:14:00;;;;;;;18.85;9.85;;;;;;;-2.61;75.10;101037.94;1710819;82;25691;-75
2021/03/09 04:16:28;;;;;;;21.87;10.28;;;;;;;-2.70;74.95;101037.88;1733512;80;25300;-75
2021/03/09 04:18:56;;;;;;;22.13;9.13;;;;;;;-2.77;75.01;101030.88;1730621;80;25727;-75
2021/03/09 04:21:25;;;;;;;23.27;10.35;;;;;;;-2.84;75.03;101033.30;1712441;81;25680;-75
2021/03/09 04:23:52;;;;;;;18.45;9.98;;;;;;;-2.81;75.23;101031.92;1734151;80;25814;-75
2021/03/09 04:26:21;;;;;;;22.25;11.05;;;;;;;-2.72;75.32;101031.53;1736388;80;25644;-76
2021/03/09 04:28:49;;;;;;;18.17;10.78;;;;;;;-2.72;75.05;101035.82;1733954;80;25938;-75
2021/03/09 04:31:18;;;;;;;20.00;9.98;;;;;;;-2.77;75.09;101028.78;1754718;79;25779;-75
2021/03/09 04:33:47;;;;;;;25.35;10.28;;;;;;;-2.76;75.07;101031.26;1714647;81;25882;-75
2021/03/09 04:36:14;;;;;;;21.35;10.15;;;;;;;-2.76;75.04;101026.59;1729821;81;26287;-75
2021/03/09 04:38:41;;;;;;;18.62;8.85;;;;;;;-2.82;74.94;101027.68;1698300;81;25362;-75
2021/03/09 04:41:08;;;;;;;21.80;10.38;;;;;;;-2.82;75.00;101025.12;1725738;81;25757;-75
2021/03/09 04:43:35;;;;;;;23.05;11.08;;;;;;;-2.76;75.04;101022.75;1725552;81;25394;-75
2021/03/09 04:46:02;;;;;;;21.07;10.08;;;;;;;-2.75;74.82;101018.05;1719229;81;25955;-75
2021/03/09 04:48:30;;;;;;;22.80;10.10;;;;;;;-2.74;74.73;101022.25;1779611;78;25725;-75
2021/03/09 04:51:12;;;;;;;22.50;12.07;;;;;;;-2.74;74.54;101018.42;1773194;78;25775;-75
2021/03/09 04:53:39;;;;;;;22.90;12.05;;;;;;;-2.72;74.47;101017.91;1753027;79;25682;-75
2021/03/09 04:56:07;;;;;;;27.50;13.45;;;;;;;-2.71;74.34;101011.89;1770412;78;25694;-75
2021/03/09 04:58:33;;;;;;;25.97;13.88;;;;;;;-2.72;74.26;101024.31;1770818;79;25648;-75
2021/03/09 05:01:00;;;;;;;24.27;12.50;;;;;;;-2.73;74.31;101027.32;1780147;78;25740;-75
2021/03/09 05:03:26;;;;;;;28.00;12.40;;;;;;;-2.78;74.17;101029.23;1772947;79;25905;-75
2021/03/09 05:05:53;;;;;;;32.20;14.90;;;;;;;-2.82;74.24;101028.13;1780630;78;25765;-75
2021/03/09 05:08:21;;;;;;;28.10;14.00;;;;;;;-2.85;74.23;101029.09;1770602;79;26310;-75
2021/03/09 05:10:48;;;;;;;26.55;12.58;;;;;;;-2.81;74.25;101036.17;1773950;79;26474;-75
2021/03/09 05:13:16;;;;;;;26.73;11.73;;;;;;;-2.87;74.07;101040.27;1771542;79;26258;-75
2021/03/09 05:15:43;;;;;;;25.30;12.68;;;;;;;-2.92;74.16;101043.01;1770728;78;26768;-76
2021/03/09 05:18:10;;;;;;;27.48;13.55;;;;;;;-2.92;74.41;101042.59;1775049;79;25359;-76
2021/03/09 05:20:38;;;;;;;27.98;13.40;;;;;;;-2.82;74.45;101048.59;1765634;79;26620;-75
2021/03/09 05:23:05;;;;;;;25.57;13.68;;;;;;;-2.81;74.32;101047.27;1771405;79;25910;-75
2021/03/09 05:25:31;;;;;;;27.60;14.05;;;;;;;-2.81;74.26;101048.55;1772894;78;26144;-75
2021/03/09 05:27:58;;;;;;;24.52;13.65;;;;;;;-2.88;74.15;101044.56;1773472;79;25746;-76
2021/03/09 05:30:25;;;;;;;25.80;13.70;;;;;;;-2.93;74.40;101043.45;1771035;79;25738;-75
2021/03/09 05:32:51;;;;;;;22.50;12.05;;;;;;;-2.78;74.75;101045.03;1772826;79;25793;-76
2021/03/09 05:35:17;;;;;;;26.00;14.05;;;;;;;-2.71;74.53;101046.42;1747413;80;25758;-75
2021/03/09 05:37:46;;;;;;;27.50;13.83;;;;;;;-2.69;74.29;101048.48;1773215;79;26395;-75
2021/03/09 05:40:16;;;;;;;23.77;13.05;;;;;;;-2.85;74.06;101051.28;1777406;78;26474;-75
2021/03/09 05:42:48;;;;;;;28.32;14.40;;;;;;;-2.97;74.13;101049.61;1782744;78;25665;-75
2021/03/09 05:45:15;;;;;;;23.90;13.98;;;;;;;-2.97;74.49;101046.22;1781495;78;25762;-75
2021/03/09 05:47:42;;;;;;;27.58;15.10;;;;;;;-2.91;74.72;101048.08;1771260;78;26779;-75
2021/03/09 05:50:10;;;;;;;27.35;14.95;;;;;;;-2.91;74.68;101048.08;1768950;78;25311;-75
2021/03/09 05:52:38;;;;;;;31.30;15.35;;;;;;;-2.88;74.88;101048.85;1775900;78;25837;-75
2021/03/09 05:55:08;;;;;;;30.65;15.15;;;;;;;-2.86;75.05;101045.80;1781143;78;26445;-75
2021/03/09 05:57:34;;;;;;;40.30;19.12;;;;;;;-2.76;75.28;101050.44;1775657;78;25680;-75
2021/03/09 06:00:03;;;;;;;33.70;19.27;;;;;;;-2.68;75.29;101055.25;1775066;78;25627;-75
2021/03/09 06:02:31;;;;;;;35.45;18.80;;;;;;;-2.62;75.33;101051.19;1772717;79;25786;-75
2021/03/09 06:04:57;;;;;;;35.05;19.75;;;;;;;-2.59;75.34;101056.17;1771352;79;25809;-75
2021/03/09 06:07:24;;;;;;;39.45;19.17;;;;;;;-2.54;75.54;101058.09;1778692;78;25290;-75
2021/03/09 06:09:50;;;;;;;35.08;19.10;;;;;;;-2.50;75.54;101061.34;1782138;78;25663;-75
2021/03/09 06:12:24;;;;;;;31.40;17.95;;;;;;;-2.48;75.55;101064.69;1783061;78;25726;-75
2021/03/09 06:15:04;;;;;;;33.10;18.77;;;;;;;-2.42;75.72;101066.16;1770377;79;25796;-75
2021/03/09 06:17:39;;;;;;;33.55;18.45;;;;;;;-2.32;75.82;101058.44;1772819;78;25890;-75
2021/03/09 06:20:22;;;;;;;25.92;16.60;;;;;;;-2.22;75.90;101064.84;1761587;79;25783;-75
2021/03/09 06:22:55;;;;;;;29.23;17.82;;;;;;;-2.14;75.91;101066.63;1771014;79;25839;-75
2021/03/09 06:25:29;;;;;;;32.65;18.10;;;;;;;-2.14;75.91;101068.36;1777977;78;26336;-75
2021/03/09 06:28:03;;;;;;;27.45;16.95;;;;;;;-2.07;76.02;101071.88;1774139;78;25718;-76
2021/03/09 06:30:34;;;;;;;33.55;18.02;;;;;;;-1.96;76.09;101079.55;1767255;79;25727;-75
2021/03/09 06:33:02;;;;;;;34.65;17.60;;;;;;;-1.88;76.07;101084.72;1773975;78;26428;-75
2021/03/09 06:35:45;;;;;;;31.70;18.50;;;;;;;-1.79;76.12;101089.88;1777614;78;25647;-75
2021/03/09 06:38:27;;;;;;;35.38;17.00;;;;;;;-1.74;76.03;101093.07;1753143;79;26404;-75
2021/03/09 06:41:16;;;;;;;29.80;17.42;;;;;;;-1.65;76.17;101091.83;1774548;79;25688;-75
2021/03/09 06:43:47;;;;;;;28.02;15.80;;;;;;;-1.54;76.12;101089.61;1757088;79;26353;-74
2021/03/09 06:46:22;;;;;;;27.50;15.75;;;;;;;-1.46;76.01;101087.98;1776441;79;25643;-75
2021/03/09 06:49:02;;;;;;;35.35;16.67;;;;;;;-1.42;75.90;101094.62;1760761;79;25907;-75
2021/03/09 06:51:37;;;;;;;31.10;16.30;;;;;;;-1.29;76.04;101098.74;1778980;78;25832;-75
2021/03/09 06:54:11;;;;;;;34.78;17.10;;;;;;;-1.23;75.75;101101.87;1775883;78;26014;-75
2021/03/09 06:56:42;;;;;;;36.48;17.73;;;;;;;-1.16;75.75;101099.84;1770368;79;25819;-75
2021/03/09 06:59:27;;;;;;;37.05;18.55;;;;;;;-1.06;75.67;101097.69;1779054;78;25948;-75
2021/03/09 07:02:10;;;;;;;29.10;15.60;;;;;;;-0.97;75.53;101108.33;1760612;79;25317;-74
2021/03/09 07:04:53;;;;;;;34.73;16.67;;;;;;;-0.97;74.67;101103.66;1754736;78;25869;-75
2021/03/09 07:07:29;;;;;;;30.08;15.18;;;;;;;-0.97;74.82;101103.66;1774022;78;25757;-74
2021/03/09 07:10:06;;;;;;;29.55;12.23;;;;;;;-0.97;74.13;101107.51;1769227;78;25347;-69
2021/03/09 07:12:35;;;;;;;20.37;11.90;;;;;;;-1.03;73.59;101102.67;1762800;79;25761;-68
2021/03/09 07:15:03;;;;;;;23.22;11.65;;;;;;;-1.10;73.27;101103.85;1767396;78;25746;-69
2021/03/09 07:17:32;;;;;;;23.50;11.53;;;;;;;-1.16;73.43;101105.80;1763818;78;25802;-74
2021/03/09 07:19:59;;;;;;;11.95;7.25;;;;;;;-1.06;73.96;101103.65;1771292;79;25422;-74
2021/03/09 07:22:28;;;;;;;17.62;8.05;;;;;;;-1.01;72.91;101101.70;1774146;79;26510;-74
2021/03/09 07:25:06;;;;;;;17.37;7.50;;;;;;;-1.05;72.22;101105.30;1766563;79;26593;-74
2021/03/09 07:28:04;;;;;;;12.90;7.50;;;;;;;-0.98;73.03;101105.40;1771234;78;25603;-74
2021/03/09 07:30:40;;;;;;;17.12;6.62;;;;;;;-0.91;72.52;101102.08;1778093;78;25942;-75
2021/03/09 07:33:07;;;;;;;14.63;6.60;;;;;;;-0.87;71.71;101099.77;1773402;78;25806;-75
2021/03/09 07:35:34;;;;;;;14.35;6.45;;;;;;;-0.84;71.65;101104.74;1774796;78;25710;-74
2021/03/09 07:38:02;;;;;;;11.22;5.97;;;;;;;-0.79;70.82;101115.63;1773903;78;25885;-74
2021/03/09 07:40:32;;;;;;;13.13;5.28;;;;;;;-0.78;70.36;101115.16;1769408;78;25905;-74
2021/03/09 07:42:59;;;;;;;8.35;5.30;;;;;;;-0.73;70.27;101110.19;1717805;79;27432;-77
2021/03/09 07:45:35;;;;;;;12.90;5.67;;;;;;;-0.65;70.25;101107.26;1770570;78;26638;-72
2021/03/09 07:48:13;;;;;;;9.83;5.37;;;;;;;-0.62;69.65;101108.84;1776634;78;25300;-71
2021/03/09 07:50:45;;;;;;;14.03;6.03;;;;;;;-0.58;69.87;101107.77;1769739;79;25821;-71
2021/03/09 07:53:18;;;;;;;14.38;5.30;;;;;;;-0.56;69.37;101108.08;1770557;79;25801;-72
2021/03/09 07:56:13;;;;;;;14.28;6.80;;;;;;;-0.54;67.72;101119.57;1772032;79;25727;-76
2021/03/09 07:58:39;;;;;;;15.98;7.60;;;;;;;-0.56;68.11;101116.23;1778191;78;26559;-71
2021/03/09 08:01:08;;;;;;;15.00;5.90;;;;;;;-0.48;69.17;101110.28;1776216;78;25368;-71
2021/03/09 08:03:46;;;;;;;11.65;5.30;;;;;;;-0.34;68.86;101106.56;1773679;78;25895;-75
2021/03/09 08:06:15;;;;;;;8.05;4.67;;;;;;;-0.31;67.10;101108.16;1772696;78;26502;-76
2021/03/09 08:08:51;;;;;;;18.37;5.58;;;;;;;-0.37;66.94;101116.17;1749173;80;27136;-76
2021/03/09 08:11:26;;;;;;;9.43;4.72;;;;;;;-0.36;67.09;101107.55;1775572;79;25679;-71
2021/03/09 08:14:10;;;;;;;10.15;4.67;;;;;;;-0.31;66.96;101110.26;1775178;78;25799;-78
2021/03/09 08:16:42;;;;;;;8.65;3.85;;;;;;;-0.28;66.39;101111.39;1779103;78;25966;-79
2021/03/09 08:19:48;;;;;;;15.50;5.00;;;;;;;-0.13;66.58;101104.66;1770426;78;25709;-72
2021/03/09 08:22:14;;;;;;;10.15;3.87;;;;;;;-0.13;65.08;101099.52;1593802;88;26753;-69
2021/03/09 08:24:46;;;;;;;8.95;3.00;;;;;;;-0.05;65.77;101103.00;1588805;86;25977;-69
2021/03/09 08:27:38;;;;;;;7.25;3.87;;;;;;;0.02;62.92;101101.75;1648744;83;25769;-70
2021/03/09 08:30:28;;;;;;;8.35;3.17;;;;;;;-0.02;64.31;101100.27;1658281;83;25848;-69
2021/03/09 08:33:26;;;;;;;9.03;3.95;;;;;;;0.07;63.78;101101.06;1644941;84;25940;-70
2021/03/09 08:35:53;;;;;;;11.30;4.70;;;;;;;0.16;63.37;101107.46;1647982;84;25887;-70
2021/03/09 08:38:22;;;;;;;8.15;4.33;;;;;;;0.20;63.77;101101.27;1674612;83;25581;-69
2021/03/09 08:41:03;;;;;;;6.15;3.42;;;;;;;0.32;64.11;101099.33;1665430;83;25390;-69
2021/03/09 08:43:30;;;;;;;7.65;3.37;;;;;;;0.46;63.12;101100.34;1674100;83;26312;-76
2021/03/09 08:46:00;;;;;;;9.08;3.30;;;;;;;0.44;61.96;101090.16;1658928;83;25825;-72
2021/03/09 08:48:45;;;;;;;5.80;3.40;;;;;;;0.47;61.97;101100.73;1659872;83;31591;-73
2021/03/09 08:51:41;;;;;;;7.70;3.15;;;;;;;0.45;61.02;101099.52;1652732;83;25763;-76
2021/03/09 08:54:23;;;;;;;5.62;2.47;;;;;;;0.42;58.75;101099.22;1706691;80;25818;-78
2021/03/09 08:56:50;;;;;;;5.35;2.90;;;;;;;0.42;60.66;101096.65;1719583;81;25798;-78
2021/03/09 08:59:22;;;;;;;5.65;3.25;;;;;;;0.51;59.80;101094.03;1656152;84;25692;-77
2021/03/09 09:01:48;;;;;;;6.65;2.90;;;;;;;0.53;59.81;101097.36;1661678;83;25842;-70
2021/03/09 09:04:17;;;;;;;3.92;2.70;;;;;;;0.51;58.00;101098.36;1673487;83;25751;-77
2021/03/09 09:06:45;;;;;;;4.30;2.90;;;;;;;0.46;58.88;101099.05;1678559;83;25382;-77
2021/03/09 09:09:12;;;;;;;7.87;3.50;;;;;;;0.44;59.42;101103.83;1667693;84;25722;-71
2021/03/09 09:11:41;;;;;;;7.28;3.50;;;;;;;0.51;58.81;101100.93;1666041;83;25773;-72
2021/03/09 09:14:18;;;;;;;4.87;3.05;;;;;;;0.53;58.72;101108.94;1665755;83;25838;-77
2021/03/09 09:16:46;;;;;;;9.78;4.30;;;;;;;0.54;58.94;101101.58;1648612;83;25802;-75
2021/03/09 09:19:15;;;;;;;7.05;4.15;;;;;;;0.59;59.60;101099.60;1677360;83;26018;-75
2021/03/09 09:21:48;;;;;;;8.55;3.72;;;;;;;0.66;58.55;101101.41;1681974;83;25646;-75
2021/03/09 09:24:23;;;;;;;6.80;3.67;;;;;;;0.67;59.45;101095.34;1663747;83;26005;-75
2021/03/09 09:26:59;;;;;;;7.72;3.45;;;;;;;0.67;59.14;101092.77;1679374;83;26879;-75
2021/03/09 09:29:26;;;;;;;8.55;3.83;;;;;;;0.63;58.97;101093.39;1661706;84;26471;-76
2021/03/09 09:32:01;;;;;;;6.28;3.87;;;;;;;0.73;57.70;101094.17;1723888;81;25669;-76
2021/03/09 09:34:36;;;;;;;5.55;2.92;;;;;;;0.70;58.35;101091.77;1710768;81;26320;-73
2021/03/09 09:37:14;;;;;;;10.48;4.15;;;;;;;0.62;57.43;101095.58;1706418;81;25728;-74
2021/03/09 09:39:42;;;;;;;8.00;3.67;;;;;;;0.57;57.97;101093.73;1653380;83;48126;-71
2021/03/09 09:42:17;;;;;;;8.28;4.00;;;;;;;0.64;57.66;101093.75;1669859;83;25807;-76
2021/03/09 09:44:45;;;;;;;12.75;5.00;;;;;;;0.72;58.00;101101.53;1665456;83;26649;-73
2021/03/09 09:47:13;;;;;;;8.55;3.90;;;;;;;0.75;58.29;101095.75;1687292;82;26350;-75
2021/03/09 09:49:43;;;;;;;7.53;3.87;;;;;;;0.75;56.83;101083.34;1638418;83;26475;-76
2021/03/09 09:52:15;;;;;;;11.53;4.70;;;;;;;0.84;56.92;101087.52;1678123;83;26453;-76
2021/03/09 09:54:53;;;;;;;10.88;4.03;;;;;;;0.95;58.65;101091.25;1681422;83;26831;-77
2021/03/09 09:57:21;;;;;;;11.63;5.05;;;;;;;1.04;57.98;101090.30;1676618;82;25889;-76
2021/03/09 09:59:48;;;;;;;13.50;5.60;;;;;;;1.02;57.23;101084.39;1672587;83;25822;-76
2021/03/09 10:02:22;;;;;;;13.53;5.08;;;;;;;1.00;56.63;101086.21;1678206;83;25491;-75
2021/03/09 10:04:49;;;;;;;9.58;4.90;;;;;;;1.09;58.79;101088.30;1677703;83;26706;-75
2021/03/09 10:07:22;;;;;;;7.55;4.40;;;;;;;1.41;59.45;101086.91;1673294;83;26522;-75
2021/03/09 10:10:08;;;;;;;7.35;4.45;;;;;;;1.70;57.99;101085.69;1654424;83;25804;-74
2021/03/09 10:12:38;;;;;;;8.03;4.20;;;;;;;1.70;57.99;101085.69;1712857;81;26158;-73
2021/03/09 10:15:08;;;;;;;9.25;4.25;;;;;;;1.74;58.63;101077.67;1709673;81;25872;-73
2021/03/09 10:17:35;;;;;;;8.10;4.00;;;;;;;2.10;59.77;101079.00;1697117;82;26723;-70
2021/03/09 10:20:06;;;;;;;11.35;4.40;;;;;;;2.07;56.31;101074.47;1691660;82;25814;-70
2021/03/09 10:22:32;;;;;;;;;;;;;;;1.93;57.39;101076.12;1696577;81;25521;-70
2021/03/09 10:25:13;;;;;;;9.85;4.75;;;;;;;1.82;56.16;101066.91;1710431;81;26031;-73
2021/03/09 10:27:39;;;;;;;11.48;4.05;;;;;;;1.73;56.84;101075.20;1676329;82;26009;-74
2021/03/09 10:30:08;;;;;;;12.60;4.37;;;;;;;1.64;57.08;101072.71;1720054;81;25709;-74
2021/03/09 10:32:49;;;;;;;9.38;5.58;;;;;;;1.60;56.77;101072.50;1722481;81;25812;-74
2021/03/09 10:35:16;;;;;;;9.90;4.25;;;;;;;1.40;57.40;101058.68;1722293;81;26214;-75
2021/03/09 10:37:42;;;;;;;6.15;4.05;;;;;;;1.40;57.40;101058.68;1720141;81;26561;-76
2021/03/09 10:40:14;;;;;;;7.92;4.08;;;;;;;1.74;56.65;101072.52;1724516;81;25893;-74
2021/03/09 10:42:50;;;;;;;6.37;3.98;;;;;;;1.74;56.65;101072.52;1726682;81;25756;-73
2021/03/09 10:45:21;;;;;;;7.67;3.77;;;;;;;1.73;54.18;101073.91;1723290;81;25417;-74
2021/03/09 10:47:53;;;;;;;13.62;4.87;;;;;;;1.51;55.14;101060.17;1715237;81;25909;-73
2021/03/09 10:50:24;;;;;;;8.23;4.03;;;;;;;1.44;54.19;101070.45;1709839;81;26062;-73
2021/03/09 10:52:51;;;;;;;11.25;4.67;;;;;;;1.30;55.33;101069.49;1720194;81;25919;-73
2021/03/09 10:55:18;;;;;;;9.60;4.30;;;;;;;1.30;55.33;101069.49;1718875;81;25845;-74
2021/03/09 10:57:44;;;;;;;8.10;4.75;;;;;;;1.35;56.12;101060.69;1717214;81;25776;-75
2021/03/09 11:00:17;;;;;;;8.40;4.20;;;;;;;1.38;55.96;101057.94;1717045;81;25662;-75
2021/03/09 11:02:45;;;;;;;9.10;4.67;;;;;;;1.43;55.67;101060.61;1714955;81;26589;-74
2021/03/09 11:05:13;;;;;;;7.08;3.90;;;;;;;1.39;55.68;101063.02;1724948;81;25842;-74
2021/03/09 11:07:40;;;;;;;10.60;4.33;;;;;;;1.44;55.27;101062.26;1714228;81;26571;-72
2021/03/09 11:10:11;;;;;;;9.00;3.92;;;;;;;1.59;57.23;101037.83;1718506;81;25853;-73
2021/03/09 11:12:38;;;;;;;7.33;3.98;;;;;;;1.59;57.23;101037.83;1717715;81;25605;-74
2021/03/09 11:15:08;;;;;;;6.62;3.65;;;;;;;1.78;54.90;101053.39;1712064;81;25697;-74
2021/03/09 11:17:34;;;;;;;7.25;4.12;;;;;;;1.78;54.90;101053.39;1730000;81;25968;-74
2021/03/09 11:20:04;;;;;;;8.93;4.95;;;;;;;1.63;54.62;101047.84;1722969;81;25833;-71
2021/03/09 11:22:30;;;;;;;7.40;3.42;;;;;;;1.63;54.62;101047.84;1719155;81;26611;-71
2021/03/09 11:24:56;;;;;;;6.22;3.40;;;;;;;1.65;54.93;101043.44;1720791;81;25819;-74
2021/03/09 11:27:23;;;;;;;8.83;3.58;;;;;;;1.71;54.64;101046.11;1717775;81;26129;-75
2021/03/09 11:29:49;;;;;;;7.28;3.70;;;;;;;1.75;54.05;101046.31;1726002;81;25979;-75
2021/03/09 11:32:15;;;;;;;8.63;3.77;;;;;;;1.72;52.60;101047.32;1729371;81;26482;-73
2021/03/09 11:34:42;;;;;;;7.90;3.92;;;;;;;1.72;52.60;101047.32;1720691;81;26426;-69
2021/03/09 11:37:08;;;;;;;8.68;3.37;;;;;;;1.39;53.30;101025.67;1718887;81;26367;-69